Latest Weather Observations for Double Island Point

IDQ60901

Issued at 6:21 pm EST Sunday 29 March 2020 (issued every 10 minutes, with the page automatically refreshed every 10 minutes)

About weather observations | Map of Brisbane area stations | Latest observations for Brisbane area | Other Formats
Station Details ID: 040068 Name: DOUBLE ISLAND POINT LIGHTHOUSE Lat: -25.93 Lon: 153.19 Height: 95.64 m
Data from the previous 72 hours. | See also: Recent months at Double Island Point
Date/Time
EST
Temp
°C
App
Temp
°C
Dew
Point
°C
Rel
Hum
%
Delta-T
°C
Wind Press
QNH
hPa
Press
MSL
hPa
Rain since
9am
mm
Dir  Spd
km/h
Gust
km/h
Spd
kts
Gust
kts
29/06:00pm 23.7 23.5 19.4 77 2.8 ESE 19 22 10 12 1016.9 1016.4 0.0
29/05:30pm 23.9 23.4 19.2 75 3.0 ESE 20 24 11 13 1016.7 1016.2 0.0
29/05:00pm 23.9 23.3 19.8 78 2.6 ESE 22 26 12 14 1016.4 1015.9 0.0
29/04:30pm 24.3 23.4 19.8 76 2.9 ESE 24 28 13 15 1016.3 1015.8 0.0
29/04:00pm 24.6 23.6 19.7 74 3.2 ESE 24 28 13 15 1016.0 1015.5 0.0
29/03:30pm 25.0 24.4 19.8 73 3.4 SE 22 26 12 14 1016.1 1015.6 0.0
29/03:00pm 25.1 24.9 19.7 72 3.5 SE 20 22 11 12 1016.2 1015.7 0.0
29/02:30pm 25.5 24.7 20.1 72 3.5 SE 24 28 13 15 1016.4 1015.9 0.0
29/02:00pm 25.5 25.0 19.9 71 3.6 SE 22 26 12 14 1016.4 1015.9 0.0
29/01:30pm 25.7 25.6 20.0 71 3.7 SE 20 24 11 13 1016.5 1016.0 0.0
29/01:00pm 25.6 25.2 20.2 72 3.5 SE 22 26 12 14 1016.6 1016.1 0.0
29/12:30pm 25.7 25.4 21.1 76 3.0 SE 24 30 13 16 1016.9 1016.4 0.0
29/12:00pm 26.5 27.0 20.8 71 3.8 ESE 19 22 10 12 1017.4 1016.9 0.0
29/11:30am 25.9 25.7 19.8 69 4.0 SE 20 24 11 13 1017.7 1017.2 0.0
29/11:00am 26.3 26.8 20.8 71 3.6 ESE 19 22 10 12 1018.1 1017.6 0.0
29/10:30am 26.0 26.3 20.3 71 3.7 ESE 19 22 10 12 1018.2 1017.7 0.0
29/10:00am 26.1 26.4 20.4 71 3.7 ESE 19 24 10 13 1018.2 1017.7 0.0
29/09:30am 25.9 25.7 20.5 72 3.5 ESE 22 26 12 14 1018.3 1017.8 0.0
29/09:00am 25.5 24.5 19.6 70 3.8 ESE 24 30 13 16 1018.4 1017.9 2.8
29/08:30am 25.1 24.2 19.9 73 3.4 ESE 24 28 13 15 1018.3 1017.8 2.8
29/08:00am 24.8 24.5 20.3 76 2.9 ESE 22 28 12 15 1018.2 1017.7 2.8
29/07:30am 24.3 23.3 20.4 79 2.5 ESE 26 28 14 15 1017.9 1017.4 2.8
29/07:00am 23.7 23.2 20.8 84 1.9 ESE 24 28 13 15 1017.6 1017.1 2.8
29/06:30am 23.1 23.0 20.8 87 1.5 ESE 22 28 12 15 1017.2 1016.7 2.8
29/06:00am 22.4 22.8 20.9 91 1.0 ESE 20 24 11 13 1016.7 1016.2 2.8
29/05:30am 22.3 22.1 20.6 90 1.1 ESE 22 28 12 15 1016.5 1016.0 2.8
29/05:00am 22.3 21.7 20.4 89 1.2 E 24 26 13 14 1016.1 1015.6 2.8
29/04:30am 22.4 21.8 20.5 89 1.2 ESE 24 30 13 16 1016.1 1015.6 2.8
29/04:00am 22.3 21.8 20.0 87 1.5 ESE 22 26 12 14 1016.1 1015.6 2.8
29/03:30am 22.0 22.3 19.7 87 1.5 ESE 17 20 9 11 1016.2 1015.7 2.8
29/03:00am 21.8 22.1 20.8 94 0.7 E 20 24 11 13 1016.2 1015.7 2.8
29/02:30am 21.3 23.1 21.1 99 0.1 NE 13 19 7 10 1016.6 1016.1 2.8
29/02:00am 21.1 23.1 20.8 98 0.2 ENE 11 17 6 9 1016.7 1016.2 2.8
29/01:30am 21.2 21.8 21.0 99 0.1 NE 19 30 10 16 1017.3 1016.8 2.0
29/01:00am 20.9 21.1 20.1 95 0.5 ENE 19 24 10 13 1017.7 1017.2 1.0
29/12:30am 21.9 19.9 20.0 89 1.2 ENE 30 44 16 24 1017.7 1017.2 0.4
29/12:00am 22.0 21.0 18.8 82 2.0 E 22 26 12 14 1017.7 1017.2 0.4
 
Date/Time
EST
Temp
°C
App
Temp
°C
Dew
Point
°C
Rel
Hum
%
Delta-T
°C
Wind Press
QNH
hPa
Press
MSL
hPa
Rain since
9am
mm
Dir  Spd
km/h
Gust
km/h
Spd
kts
Gust
kts
28/11:30pm 22.0 20.0 19.9 88 1.4 E 30 37 16 20 1017.8 1017.3 0.4
28/11:00pm 22.2 20.0 19.6 85 1.7 E 30 37 16 20 1018.0 1017.5 0.4
28/10:30pm 23.0 21.3 20.5 86 1.6 SE 30 35 16 19 1018.1 1017.6 0.4
28/10:00pm 22.8 21.2 20.0 84 1.8 SE 28 33 15 18 1018.1 1017.6 0.4
28/09:30pm 22.5 20.2 20.6 89 1.2 SE 33 37 18 20 1018.2 1017.7 0.4
28/09:00pm 22.0 20.4 20.8 93 0.8 SSE 30 37 16 20 1018.1 1017.6 0.4
28/08:30pm 22.3 19.4 20.9 92 0.9 SE 37 44 20 24 1017.9 1017.4 0.4
28/08:00pm 21.9 20.9 21.2 96 0.5 SSE 28 35 15 19 1017.6 1017.1 0.4
28/07:30pm 22.0 20.9 21.0 94 0.7 S 28 35 15 19 1017.6 1017.1 0.4
28/07:00pm 21.7 20.4 21.4 98 0.2 S 30 35 16 19 1017.4 1016.9 0.4
28/06:30pm 21.2 21.6 20.9 98 0.2 S 20 24 11 13 1017.2 1016.7 0.4
28/06:00pm 21.4 21.5 20.4 94 0.6 SSW 20 26 11 14 1017.5 1017.0 0.4
28/05:30pm 21.9 21.6 19.5 86 1.5 SE 20 22 11 12 1017.4 1016.9 0.4
28/05:00pm 21.5 21.0 20.0 91 1.0 ESE 22 24 12 13 1017.1 1016.6 0.4
28/04:30pm 21.0 19.3 19.7 92 0.8 SE 28 37 15 20 1017.1 1016.6 0.2
28/04:21pm 21.0 17.6 19.1 89 1.2 ESE 35 48 19 26 1016.9 1016.4 0.2
28/04:00pm 22.0 19.2 19.4 85 1.7 E 33 54 18 29 1016.5 1016.0 0.2
28/03:58pm 22.3 20.7 20.0 87 1.5 E 28 52 15 28 1016.6 1016.1 0.2
28/03:30pm 22.9 23.2 20.4 86 1.6 SSE 19 30 10 16 1017.0 1016.5 0.2
28/03:00pm 24.3 24.4 20.4 79 2.5 SE 20 28 11 15 1017.2 1016.7 0.2
28/02:30pm 24.6 24.9 20.7 79 2.6 SE 20 24 11 13 1017.2 1016.7 0.2
28/02:00pm 24.6 25.5 21.9 85 1.8 ESE 20 26 11 14 1017.1 1016.6 0.2
28/01:30pm 23.2 21.3 19.4 79 2.4 E 28 33 15 18 1017.3 1016.8 0.2
28/01:00pm 24.5 20.8 20.8 80 2.4 E 41 46 22 25 1017.3 1016.8 0.2
28/12:48pm 24.5 20.3 20.6 79 2.6 ESE 43 50 23 27 1017.6 1017.1 0.2
28/12:30pm 24.9 22.2 21.2 80 2.4 ESE 37 43 20 23 1017.7 1017.2 0.2
28/12:00pm 23.8 21.4 21.1 85 1.8 S 35 44 19 24 1017.8 1017.3 0.2
28/11:30am 23.9 21.4 21.6 87 1.5 S 37 46 20 25 1018.1 1017.6 0.2
28/11:00am 23.3 19.8 21.2 88 1.4 S 41 52 22 28 1018.4 1017.9 0.2
28/10:30am 23.0 19.1 21.1 89 1.2 S 43 50 23 27 1018.7 1018.2 0.0
28/10:00am 22.8 18.8 20.9 89 1.2 S 43 52 23 28 1018.7 1018.2 0.0
28/09:30am 22.2 18.2 21.0 93 0.8 S 43 54 23 29 1018.4 1017.9 0.0
28/09:02am 21.8 18.6 21.0 95 0.5 S 39 65 21 35 1018.4 1017.9 0.0
28/09:00am 21.6 18.2 20.6 94 0.6 S 39 50 21 27 1018.6 1018.1 9.0
28/08:48am 22.4 19.4 19.9 86 1.6 SSE 35 44 19 24 1018.7 1018.2 9.0
28/08:30am 24.6 22.7 20.9 80 2.4 SE 32 39 17 21 1018.7 1018.2 9.0
28/08:00am 23.7 21.6 20.6 83 2.0 SE 32 39 17 21 1018.5 1018.0 9.0
28/07:30am 21.4 19.6 21.2 99 0.1 S 32 39 17 21 1018.3 1017.8 9.0
28/07:00am 20.8 18.7 20.6 99 0.1 SSW 32 44 17 24 1017.9 1017.4 9.0
28/06:40am 20.9 18.9 20.7 99 0.1 S 32 50 17 27 1017.8 1017.3 8.8
28/06:30am 21.1 19.2 20.9 99 0.1 S 32 43 17 23 1017.7 1017.2 8.8
28/06:00am 21.0 18.5 20.8 99 0.1 SSW 35 54 19 29 1017.5 1017.0 8.8
28/05:59am 21.1 18.6 20.9 99 0.1 SSW 35 54 19 29 1017.5 1017.0 8.8
28/05:30am 20.6 17.5 20.4 99 0.1 S 37 48 20 26 1017.3 1016.8 8.8
28/05:00am 20.8 17.4 20.6 99 0.1 S 39 50 21 27 1017.0 1016.5 8.8
28/04:30am 20.9 18.3 20.6 98 0.2 S 35 46 19 25 1017.0 1016.5 8.8
28/04:06am 20.9 18.6 20.1 95 0.5 S 32 52 17 28 1016.7 1016.2 8.8
28/04:00am 21.3 18.9 19.9 92 0.9 SSE 32 44 17 24 1017.1 1016.6 8.8
28/03:30am 23.0 20.2 19.4 80 2.3 SE 33 41 18 22 1017.1 1016.6 8.8
28/03:00am 22.8 18.7 19.2 80 2.3 SE 39 44 21 24 1017.1 1016.6 8.8
28/02:30am 22.6 18.8 19.8 84 1.8 SE 39 43 21 23 1017.2 1016.7 8.8
28/02:00am 22.3 18.4 20.4 89 1.2 SE 41 48 22 26 1017.4 1016.9 8.8
28/01:30am 21.7 17.7 21.0 96 0.5 SE 43 50 23 27 1017.7 1017.2 8.8
28/01:01am 21.6 20.3 21.4 99 0.1 SE 30 54 16 29 1018.1 1017.6 8.6
28/01:00am 21.7 20.8 21.5 99 0.1 SE 28 33 15 18 1018.1 1017.6 8.6
28/12:44am 20.9 17.5 20.7 99 0.1 SE 39 57 21 31 1018.3 1017.8 8.6
28/12:30am 21.1 16.3 20.4 96 0.5 SE 46 59 25 32 1018.2 1017.7 8.4
28/12:00am 21.8 18.5 21.6 99 0.1 SSE 41 48 22 26 1018.6 1018.1 8.4
 
Date/Time
EST
Temp
°C
App
Temp
°C
Dew
Point
°C
Rel
Hum
%
Delta-T
°C
Wind Press
QNH
hPa
Press
MSL
hPa
Rain since
9am
mm
Dir  Spd
km/h
Gust
km/h
Spd
kts
Gust
kts
27/11:30pm 20.8 17.9 20.8 100 0.0 SSE 37 44 20 24 1019.0 1018.5 8.0
27/11:00pm 21.2 20.1 21.0 99 0.1 S 28 35 15 19 1019.4 1018.9 1.6
27/10:54pm 21.2 19.1 20.9 98 0.2 SSE 33 41 18 22 1019.3 1018.8 1.4
27/10:33pm 20.8 15.8 20.0 95 0.5 SE 46 63 25 34 1019.3 1018.8 1.2
27/10:30pm 20.9 15.7 19.6 92 0.8 SE 46 63 25 34 1019.2 1018.7 1.2
27/10:28pm 21.4 16.5 19.5 89 1.2 SSE 44 63 24 34 1019.2 1018.7 1.0
27/10:24pm 22.5 18.9 20.2 87 1.5 SSE 39 59 21 32 1019.2 1018.7 0.8
27/10:00pm 22.5 18.9 20.2 87 1.5 SSE 39 44 21 24 1019.3 1018.8 0.8
27/09:30pm 22.6 18.6 20.9 90 1.1 SSE 43 48 23 26 1019.5 1019.0 0.8
27/09:00pm 22.2 18.1 20.7 91 1.0 SSE 43 54 23 29 1019.3 1018.8 0.8
27/08:30pm 22.1 15.9 20.0 88 1.4 SSE 52 65 28 35 1018.7 1018.2 0.8
27/08:10pm 21.6 19.3 21.3 98 0.2 S 35 54 19 29 1018.9 1018.4 0.8
27/08:00pm 21.8 18.5 20.8 94 0.7 S 39 50 21 27 1018.9 1018.4 0.2
27/07:30pm 22.5 17.6 20.2 87 1.5 SSE 46 57 25 31 1018.6 1018.1 0.2
27/07:00pm 22.6 17.7 19.4 82 2.0 SSE 44 54 24 29 1018.3 1017.8 0.2
27/06:30pm 22.8 17.6 19.6 82 2.1 SSE 46 57 25 31 1018.1 1017.6 0.2
27/06:00pm 22.6 17.8 19.2 81 2.2 SSE 43 54 23 29 1018.0 1017.5 0.2
27/05:30pm 22.3 18.5 19.8 86 1.6 SSE 39 50 21 27 1017.9 1017.4 0.2
27/05:00pm 21.9 15.7 19.1 84 1.8 SSE 50 59 27 32 1017.8 1017.3 0.2
27/04:30pm 22.4 18.0 19.4 83 1.9 S 41 54 22 29 1017.9 1017.4 0.2
27/04:00pm 22.2 18.7 18.8 81 2.1 S 35 44 19 24 1018.1 1017.6 0.2
27/03:30pm 22.6 18.4 19.0 80 2.3 S 39 48 21 26 1017.8 1017.3 0.2
27/03:00pm 23.2 18.6 17.9 72 3.3 S 39 50 21 27 1017.9 1017.4 0.2
27/02:30pm 22.9 17.4 18.9 78 2.5 SSE 46 56 25 30 1017.7 1017.2 0.2
27/02:00pm 23.9 20.2 19.2 75 3.0 SSE 37 43 20 23 1018.1 1017.6 0.2
27/01:30pm 24.1 20.4 20.0 78 2.7 SSE 39 48 21 26 1018.4 1017.9 0.2
27/01:00pm 25.2 21.1 20.0 73 3.4 SSE 41 48 22 26 1018.6 1018.1 0.2
27/12:30pm 25.1 20.5 18.1 65 4.4 SSE 39 44 21 24 1018.9 1018.4 0.2
27/12:00pm 24.9 20.3 18.1 66 4.3 SSE 39 46 21 25 1019.1 1018.6 0.2
27/11:30am 24.4 20.6 18.1 68 4.0 SE 35 41 19 22 1019.5 1019.0 0.2
27/11:00am 24.9 20.7 18.1 66 4.3 SE 37 44 20 24 1019.6 1019.1 0.2
27/10:30am 25.2 21.2 18.6 67 4.2 SE 37 41 20 22 1019.7 1019.2 0.0
27/10:00am 24.6 20.5 18.3 68 4.0 SE 37 43 20 23 1019.9 1019.4 0.0
27/09:30am 23.8 20.8 19.1 75 3.0 SSE 33 44 18 24 1019.9 1019.4 0.0
27/09:00am 24.0 20.2 18.9 73 3.2 SE 37 43 20 23 1019.8 1019.3 4.2
27/08:30am 24.2 21.1 19.7 76 2.9 SSE 35 43 19 23 1019.6 1019.1 4.2
27/08:00am 22.2 19.2 19.9 87 1.5 SSE 35 48 19 26 1019.5 1019.0 4.2
27/07:30am 23.7 20.6 19.6 78 2.6 SE 35 41 19 22 1019.0 1018.5 4.2
27/07:00am 23.1 19.1 18.6 76 2.8 SE 37 43 20 23 1018.8 1018.3 4.2
27/06:30am 22.3 18.8 19.5 84 1.8 SE 37 43 20 23 1018.5 1018.0 4.2
27/06:00am 23.0 20.2 18.3 75 3.0 SE 30 35 16 19 1018.5 1018.0 3.4
27/05:30am 23.1 21.2 19.3 79 2.4 SE 28 37 15 20 1018.2 1017.7 3.4
27/05:00am 22.2 18.4 19.0 82 2.0 SE 37 48 20 26 1018.0 1017.5 3.4
27/04:30am 22.8 20.2 19.4 81 2.2 SE 32 39 17 21 1017.6 1017.1 3.4
27/04:00am 22.6 19.2 19.9 85 1.7 SE 37 46 20 25 1017.6 1017.1 3.4
27/03:30am 22.8 20.1 19.2 80 2.3 SE 32 39 17 21 1017.6 1017.1 3.4
27/03:00am 22.8 19.9 19.2 80 2.3 ESE 33 39 18 21 1017.7 1017.2 3.4
27/02:30am 22.4 21.7 21.0 92 0.9 ESE 26 35 14 19 1017.7 1017.2 3.4
27/02:00am 23.0 21.3 19.8 82 2.1 ESE 28 32 15 17 1018.1 1017.6 3.4
27/01:30am 22.6 20.3 19.4 82 2.0 ESE 30 33 16 18 1018.4 1017.9 3.4
27/01:00am 22.8 21.7 21.1 90 1.1 SE 28 37 15 20 1018.3 1017.8 3.4
27/12:30am 22.0 21.5 20.8 93 0.8 ENE 24 32 13 17 1018.5 1018.0 3.4
27/12:00am 22.7 21.2 21.0 90 1.1 SE 30 35 16 19 1018.7 1018.2 3.4
 
Date/Time
EST
Temp
°C
App
Temp
°C
Dew
Point
°C
Rel
Hum
%
Delta-T
°C
Wind Press
QNH
hPa
Press
MSL
hPa
Rain since
9am
mm
Dir  Spd
km/h
Gust
km/h
Spd
kts
Gust
kts
26/11:30pm 22.2 22.0 20.5 90 1.1 SE 22 26 12 14 1019.0 1018.5 3.4
26/11:00pm 21.7 22.1 20.7 94 0.6 SE 19 22 10 12 1019.2 1018.7 3.4
26/10:30pm 21.3 21.7 21.0 98 0.2 ESE 20 24 11 13 1019.5 1019.0 3.4
26/10:00pm 21.0 20.5 20.8 99 0.1 ESE 24 30 13 16 1019.6 1019.1 3.4
26/09:30pm 20.8 18.8 20.8 100 0.0 ESE 32 37 17 20 1019.9 1019.4 3.4
26/09:00pm 21.3 19.4 21.3 100 0.0 ESE 33 41 18 22 1019.9 1019.4 3.2
26/08:30pm 20.6 19.3 20.6 100 0.0 ESE 28 33 15 18 1020.0 1019.5 3.2
26/08:00pm 20.4 18.6 20.4 100 0.0 E 30 35 16 19 1019.8 1019.3 3.2
26/07:30pm 21.0 20.6 21.0 100 0.0 E 24 30 13 16 1019.4 1018.9 2.6
26/07:00pm 20.8 20.0 20.8 100 0.0 ESE 26 30 14 16 1019.1 1018.6 2.4
26/06:30pm 20.5 19.1 20.5 100 0.0 ESE 28 37 15 20 1019.0 1018.5 1.6

Latest Capital City Observations: Canberra | Sydney | Melbourne | Brisbane | Adelaide | Perth | Hobart | Darwin

Other formats

Comma delimited format used in spreadsheet applications
http://www.bom.gov.au/fwo/IDQ60901/IDQ60901.94584.axf

JavaScript Object Notation format (JSON) in row-major order
http://www.bom.gov.au/fwo/IDQ60901/IDQ60901.94584.json

Data quality

Most of these data are generated automatically and are frequently updated. Quality checks on data are not normally performed. It is possible for incorrect values to appear. Refer to information at About Latest Weather Observations and please check the disclaimer before using these data.